createdAt,value
2023-03-05T00:00:12.139Z,83.43
2023-03-05T00:01:12.173Z,83.12
2023-03-05T00:02:12.120Z,83.18
2023-03-05T00:03:12.174Z,83.29
2023-03-05T00:04:12.103Z,83.29
2023-03-05T00:05:12.124Z,83.53
2023-03-05T00:06:12.086Z,83.60
2023-03-05T00:07:12.081Z,83.60
2023-03-05T00:08:12.055Z,84.33
2023-03-05T00:09:12.077Z,84.05
2023-03-05T00:10:12.022Z,83.95
2023-03-05T00:11:12.064Z,84.53
2023-03-05T00:12:12.002Z,84.05
2023-03-05T00:13:12.021Z,83.95
2023-03-05T00:14:12.015Z,83.95
2023-03-05T00:15:11.987Z,84.01
2023-03-05T00:16:12.092Z,84.33
2023-03-05T00:17:11.982Z,84.27
2023-03-05T00:18:11.938Z,84.47
2023-03-05T00:19:11.960Z,84.37
2023-03-05T00:20:11.917Z,84.58
2023-03-05T00:21:11.929Z,84.68
2023-03-05T00:22:11.892Z,85.30
2023-03-05T00:23:11.923Z,85.20
2023-03-05T00:24:11.871Z,85.93
2023-03-05T00:25:11.899Z,85.51
2023-03-05T00:26:11.906Z,85.61
2023-03-05T00:27:11.861Z,85.20
2023-03-05T00:28:11.843Z,84.89
2023-03-05T00:29:11.865Z,84.99
2023-03-05T00:30:11.824Z,85.20
2023-03-05T00:31:11.863Z,85.10
2023-03-05T00:32:11.816Z,84.89
2023-03-05T00:33:11.802Z,84.84
2023-03-05T00:34:11.794Z,84.95
2023-03-05T00:35:11.826Z,84.78
2023-03-05T00:36:11.752Z,84.74
2023-03-05T00:37:11.763Z,84.78
2023-03-05T00:38:11.725Z,84.78
2023-03-05T00:39:11.792Z,84.68
2023-03-05T00:40:11.800Z,86.03
2023-03-05T00:41:11.746Z,85.51
2023-03-05T00:42:11.700Z,84.99
2023-03-05T00:43:11.694Z,85.20
2023-03-05T00:44:11.665Z,84.99
2023-03-05T00:45:11.688Z,85.10
2023-03-05T00:46:11.695Z,85.20
2023-03-05T00:47:11.658Z,86.03
2023-03-05T00:48:11.653Z,85.82
2023-03-05T00:49:11.622Z,85.30
2023-03-05T00:50:11.629Z,85.10
2023-03-05T00:51:11.599Z,85.20
2023-03-05T00:52:11.610Z,84.99
2023-03-05T00:53:11.605Z,84.89
2023-03-05T00:54:11.579Z,84.99
2023-03-05T00:55:11.555Z,84.78
2023-03-05T00:56:11.563Z,84.78
2023-03-05T00:57:11.534Z,84.58
2023-03-05T00:58:11.574Z,84.68
2023-03-05T00:59:11.526Z,84.47
2023-03-05T01:00:11.523Z,84.37
2023-03-05T01:01:11.497Z,84.27
2023-03-05T01:02:11.494Z,84.43
2023-03-05T01:03:11.463Z,84.68
2023-03-05T01:04:11.475Z,84.37
2023-03-05T01:05:11.568Z,84.22
2023-03-05T01:06:11.447Z,84.16
2023-03-05T01:07:11.417Z,84.27
2023-03-05T01:08:11.422Z,84.37
2023-03-05T01:09:11.422Z,84.37
2023-03-05T01:10:11.402Z,84.89
2023-03-05T01:11:11.407Z,84.89
2023-03-05T01:12:11.380Z,84.68
2023-03-05T01:13:11.345Z,84.68
2023-03-05T01:14:11.374Z,84.68
2023-03-05T01:15:11.360Z,84.37
2023-03-05T01:16:11.417Z,84.68
2023-03-05T01:17:11.338Z,84.68
2023-03-05T01:18:11.324Z,84.78
2023-03-05T01:19:11.285Z,84.89
2023-03-05T01:20:11.336Z,84.89
2023-03-05T01:21:11.261Z,85.72
2023-03-05T01:22:11.268Z,85.10
2023-03-05T01:23:11.260Z,85.10
2023-03-05T01:24:11.381Z,85.20
2023-03-05T01:25:11.210Z,84.99
2023-03-05T01:26:11.224Z,85.10
2023-03-05T01:27:11.213Z,85.20
2023-03-05T01:28:11.212Z,85.30
2023-03-05T01:29:11.193Z,85.41
2023-03-05T01:30:11.201Z,85.30
2023-03-05T01:31:11.218Z,85.30
2023-03-05T01:32:11.179Z,85.41
2023-03-05T01:33:11.136Z,85.30
2023-03-05T01:34:11.143Z,85.51
2023-03-05T01:35:11.188Z,85.61
2023-03-05T01:36:11.126Z,85.51
2023-03-05T01:37:11.093Z,85.30
2023-03-05T01:38:11.110Z,85.61
2023-03-05T01:39:11.089Z,85.72
2023-03-05T01:40:11.095Z,85.61
2023-03-05T01:41:11.333Z,85.82
2023-03-05T01:42:11.056Z,86.34
2023-03-05T01:43:11.029Z,86.55
2023-03-05T01:44:11.055Z,86.44
2023-03-05T01:45:11.018Z,86.24
2023-03-05T01:46:11.075Z,86.24
2023-03-05T01:47:11.005Z,86.55
2023-03-05T01:48:10.990Z,86.44
2023-03-05T01:49:10.977Z,86.55
2023-03-05T01:50:10.982Z,86.34
2023-03-05T01:51:11.104Z,86.65
2023-03-05T01:52:10.953Z,86.65
2023-03-05T01:53:10.954Z,86.76
2023-03-05T01:54:10.935Z,86.65
2023-03-05T01:55:10.903Z,86.76
2023-03-05T01:56:10.928Z,86.86
2023-03-05T01:57:10.892Z,87.07
2023-03-05T01:58:10.896Z,86.86
2023-03-05T01:59:10.881Z,86.96
2023-03-05T02:00:10.870Z,87.17
2023-03-05T02:01:10.879Z,87.27
2023-03-05T02:02:10.847Z,87.38
2023-03-05T02:03:10.850Z,87.48
2023-03-05T02:04:10.901Z,87.69
2023-03-05T02:05:10.822Z,87.69
2023-03-05T02:06:10.804Z,87.79
2023-03-05T02:07:10.787Z,87.90
2023-03-05T02:08:10.788Z,87.90
2023-03-05T02:09:10.765Z,88.10
2023-03-05T02:10:10.786Z,88.10
2023-03-05T02:11:10.757Z,88.00
2023-03-05T02:12:10.758Z,88.00
2023-03-05T02:13:10.716Z,88.42
2023-03-05T02:14:10.732Z,88.21
2023-03-05T02:15:10.690Z,88.42
2023-03-05T02:16:10.748Z,88.42
2023-03-05T02:17:10.692Z,88.62
2023-03-05T02:18:10.691Z,88.62
2023-03-05T02:19:10.653Z,88.84
2023-03-05T02:20:10.662Z,88.84
2023-03-05T02:21:10.672Z,88.94
2023-03-05T02:22:10.647Z,89.04
2023-03-05T02:23:10.642Z,89.04
2023-03-05T02:24:10.650Z,89.56
2023-03-05T02:25:10.615Z,89.56
2023-03-05T02:26:10.628Z,89.56
2023-03-05T02:27:10.571Z,89.67
2023-03-05T02:28:10.583Z,89.98
2023-03-05T02:29:10.579Z,90.29
2023-03-05T02:30:10.561Z,90.19
2023-03-05T02:31:10.556Z,90.08
2023-03-05T02:32:10.678Z,90.19
2023-03-05T02:33:10.511Z,90.29
2023-03-05T02:34:10.527Z,90.54
2023-03-05T02:35:10.531Z,90.64
2023-03-05T02:36:10.500Z,90.75
2023-03-05T02:37:10.497Z,90.75
2023-03-05T02:38:10.479Z,90.85
2023-03-05T02:39:10.449Z,90.95
2023-03-05T02:40:10.476Z,91.47
2023-03-05T02:41:10.442Z,91.27
2023-03-05T02:42:10.450Z,91.37
2023-03-05T02:43:10.402Z,91.58
2023-03-05T02:44:10.426Z,91.58
2023-03-05T02:45:10.379Z,91.58
2023-03-05T02:46:10.477Z,91.58
2023-03-05T02:47:10.390Z,91.68
2023-03-05T02:48:10.393Z,91.68
2023-03-05T02:49:10.337Z,91.78
2023-03-05T02:50:10.366Z,91.99
2023-03-05T02:51:10.341Z,92.20
2023-03-05T02:52:10.335Z,92.20
2023-03-05T02:53:10.318Z,92.20
2023-03-05T02:54:10.327Z,92.41
2023-03-05T02:55:10.284Z,92.41
2023-03-05T02:56:10.300Z,92.41
2023-03-05T02:57:10.262Z,92.51
2023-03-05T02:58:10.273Z,92.61
2023-03-05T02:59:10.277Z,92.61
2023-03-05T03:00:10.384Z,92.61
2023-03-05T03:01:10.405Z,92.82
2023-03-05T03:02:10.266Z,92.82
2023-03-05T03:03:10.293Z,93.14
2023-03-05T03:04:10.207Z,93.03
2023-03-05T03:05:10.264Z,93.03
2023-03-05T03:06:10.212Z,92.93
2023-03-05T03:07:10.208Z,93.03
2023-03-05T03:08:10.228Z,93.24
2023-03-05T03:09:10.192Z,93.14
2023-03-05T03:10:10.201Z,93.14
2023-03-05T03:11:10.235Z,93.24
2023-03-05T03:12:10.150Z,93.24
2023-03-05T03:13:10.132Z,93.35
2023-03-05T03:14:10.109Z,93.35
2023-03-05T03:15:10.102Z,93.24
2023-03-05T03:16:10.132Z,93.35
2023-03-05T03:17:10.120Z,93.35
2023-03-05T03:18:10.069Z,93.45
2023-03-05T03:19:10.037Z,93.35
2023-03-05T03:20:10.045Z,93.35
2023-03-05T03:21:10.020Z,93.35
2023-03-05T03:22:10.036Z,93.45
2023-03-05T03:23:10.040Z,93.45
2023-03-05T03:24:10.019Z,93.55
2023-03-05T03:25:09.976Z,93.45
2023-03-05T03:26:09.988Z,93.55
2023-03-05T03:27:09.983Z,93.45
2023-03-05T03:28:09.979Z,93.66
2023-03-05T03:29:09.955Z,93.55
2023-03-05T03:30:09.949Z,93.66
2023-03-05T03:31:09.953Z,93.55
2023-03-05T03:32:09.959Z,93.55
2023-03-05T03:33:09.900Z,93.66
2023-03-05T03:34:09.916Z,93.66
2023-03-05T03:35:09.911Z,93.91
2023-03-05T03:36:09.884Z,93.76
2023-03-05T03:37:09.858Z,93.87
2023-03-05T03:38:09.876Z,93.97
2023-03-05T03:39:09.855Z,93.97
2023-03-05T03:40:09.881Z,93.97
2023-03-05T03:41:09.855Z,93.97
2023-03-05T03:42:09.908Z,94.18
2023-03-05T03:43:09.842Z,94.07
2023-03-05T03:44:09.837Z,94.12
2023-03-05T03:45:09.772Z,94.12
2023-03-05T03:46:09.956Z,94.22
2023-03-05T03:47:09.827Z,94.22
2023-03-05T03:48:09.790Z,94.12
2023-03-05T03:49:09.760Z,94.12
2023-03-05T03:50:09.748Z,94.01
2023-03-05T03:51:09.757Z,94.22
2023-03-05T03:52:09.771Z,93.91
2023-03-05T03:53:09.729Z,93.70
2023-03-05T03:54:09.718Z,93.80
2023-03-05T03:55:09.702Z,93.80
2023-03-05T03:56:09.676Z,93.70
2023-03-05T03:57:09.676Z,93.80
2023-03-05T03:58:09.661Z,93.91
2023-03-05T03:59:09.649Z,93.91
2023-03-05T04:00:09.665Z,93.80
2023-03-05T04:01:09.634Z,94.01
2023-03-05T04:02:09.672Z,94.12
2023-03-05T04:03:09.662Z,94.12
2023-03-05T04:04:09.640Z,94.12
2023-03-05T04:05:09.609Z,94.01
2023-03-05T04:06:09.584Z,94.22
2023-03-05T04:07:09.579Z,94.22
2023-03-05T04:08:09.572Z,94.22
2023-03-05T04:09:09.534Z,94.43
2023-03-05T04:10:09.535Z,94.53
2023-03-05T04:11:09.540Z,94.74
2023-03-05T04:12:09.515Z,94.64
2023-03-05T04:13:09.491Z,94.74
2023-03-05T04:14:09.499Z,94.64
2023-03-05T04:15:09.465Z,94.74
2023-03-05T04:16:09.538Z,94.74
2023-03-05T04:17:09.463Z,95.05
2023-03-05T04:18:09.456Z,95.57
2023-03-05T04:19:09.428Z,95.57
2023-03-05T04:20:09.432Z,95.67
2023-03-05T04:21:09.407Z,95.89
2023-03-05T04:22:09.443Z,95.78
2023-03-05T04:23:09.416Z,95.78
2023-03-05T04:24:09.390Z,95.89
2023-03-05T04:25:09.360Z,95.67
2023-03-05T04:26:09.389Z,96.20
2023-03-05T04:27:09.341Z,96.09
2023-03-05T04:28:09.351Z,96.51
2023-03-05T04:29:09.357Z,96.72
2023-03-05T04:30:09.328Z,97.34
2023-03-05T04:31:09.344Z,97.96
2023-03-05T04:32:09.366Z,98.48
2023-03-05T04:33:09.278Z,99.21
2023-03-05T04:34:09.307Z,99.99
2023-03-05T04:35:09.399Z,99.77
2023-03-05T04:36:09.259Z,99.99
2023-03-05T04:37:09.238Z,99.99
2023-03-05T04:38:09.261Z,99.99
2023-03-05T04:39:09.203Z,99.99
2023-03-05T04:40:09.234Z,99.99
2023-03-05T04:41:09.206Z,99.99
2023-03-05T04:42:09.204Z,99.99
2023-03-05T04:43:09.177Z,99.99
2023-03-05T04:44:09.177Z,99.99
2023-03-05T04:45:09.156Z,99.99
2023-03-05T04:46:09.166Z,99.99
2023-03-05T04:47:09.144Z,99.99
2023-03-05T04:48:09.153Z,99.99
2023-03-05T04:49:09.100Z,99.99
2023-03-05T04:50:09.107Z,99.99
2023-03-05T04:51:09.078Z,99.99
2023-03-05T04:52:09.089Z,99.99
2023-03-05T04:53:09.077Z,99.99
2023-03-05T04:54:09.088Z,99.99
2023-03-05T04:55:09.033Z,99.99
2023-03-05T04:56:09.067Z,99.99
2023-03-05T04:57:09.022Z,99.99
2023-03-05T04:58:09.032Z,99.99
2023-03-05T04:59:09.276Z,99.99
2023-03-05T05:00:09.026Z,99.99
2023-03-05T05:01:08.984Z,99.99
2023-03-05T05:02:08.962Z,99.99
2023-03-05T05:03:09.081Z,99.99
2023-03-05T05:04:08.957Z,99.99
2023-03-05T05:05:08.972Z,99.99
2023-03-05T05:06:08.940Z,99.99
2023-03-05T05:07:08.935Z,99.99
2023-03-05T05:08:08.903Z,99.99
2023-03-05T05:09:08.926Z,99.99
2023-03-05T05:10:08.883Z,99.99
2023-03-05T05:11:08.920Z,99.99
2023-03-05T05:12:08.869Z,99.99
2023-03-05T05:13:08.880Z,99.99
2023-03-05T05:14:08.863Z,99.99
2023-03-05T05:15:08.901Z,99.99
2023-03-05T05:16:08.939Z,99.99
2023-03-05T05:17:08.864Z,99.99
2023-03-05T05:18:08.825Z,99.99
2023-03-05T05:19:08.876Z,99.99
2023-03-05T05:20:08.812Z,99.99
2023-03-05T05:21:08.805Z,99.99
2023-03-05T05:22:08.774Z,99.99
2023-03-05T05:23:08.800Z,99.99
2023-03-05T05:24:08.747Z,99.99
2023-03-05T05:25:08.769Z,99.99
2023-03-05T05:26:08.717Z,99.99
2023-03-05T05:27:08.751Z,99.99
2023-03-05T05:28:08.698Z,99.99
2023-03-05T05:29:08.726Z,99.99
2023-03-05T05:30:08.688Z,99.99
2023-03-05T05:31:08.783Z,99.99
2023-03-05T05:32:08.689Z,99.99
2023-03-05T05:33:08.678Z,99.99
2023-03-05T05:34:08.634Z,99.99
2023-03-05T05:35:08.670Z,99.99
2023-03-05T05:36:08.621Z,99.99
2023-03-05T05:37:08.626Z,99.99
2023-03-05T05:38:08.600Z,99.99
2023-03-05T05:39:08.614Z,99.99
2023-03-05T05:40:08.594Z,99.99
2023-03-05T05:41:08.613Z,99.99
2023-03-05T05:42:08.609Z,99.99
2023-03-05T05:43:08.576Z,99.99
2023-03-05T05:44:08.545Z,99.99
2023-03-05T05:45:08.675Z,99.99
2023-03-05T05:46:08.671Z,99.99
2023-03-05T05:47:08.702Z,99.99
2023-03-05T05:48:08.516Z,99.99
2023-03-05T05:49:08.516Z,99.99
2023-03-05T05:50:08.479Z,99.99
2023-03-05T05:51:08.490Z,99.99
2023-03-05T05:52:08.458Z,99.99
2023-03-05T05:53:08.488Z,99.99
2023-03-05T05:54:08.442Z,99.99
2023-03-05T05:55:08.454Z,99.99
2023-03-05T05:56:08.418Z,99.99
2023-03-05T05:57:08.471Z,99.99
2023-03-05T05:58:08.393Z,99.99
2023-03-05T05:59:08.421Z,99.99
2023-03-05T06:00:08.374Z,99.99
2023-03-05T06:01:08.394Z,99.99
2023-03-05T06:02:08.399Z,99.99
2023-03-05T06:03:08.436Z,99.99
2023-03-05T06:04:08.333Z,99.99
2023-03-05T06:05:08.382Z,99.99
2023-03-05T06:06:08.312Z,99.99
2023-03-05T06:07:08.338Z,99.99
2023-03-05T06:08:08.291Z,99.99
2023-03-05T06:09:08.304Z,99.99
2023-03-05T06:10:08.270Z,99.99
2023-03-05T06:11:08.330Z,99.99
2023-03-05T06:12:08.251Z,99.99
2023-03-05T06:13:08.272Z,99.99
2023-03-05T06:14:08.240Z,99.99
2023-03-05T06:15:08.253Z,99.99
2023-03-05T06:16:08.274Z,99.99
2023-03-05T06:17:08.958Z,99.99
2023-03-05T06:18:08.188Z,99.99
2023-03-05T06:19:08.206Z,99.99
2023-03-05T06:20:08.178Z,99.99
2023-03-05T06:21:08.197Z,99.99
2023-03-05T06:22:08.152Z,99.99
2023-03-05T06:23:08.188Z,99.99
2023-03-05T06:24:08.163Z,99.99
2023-03-05T06:25:08.150Z,99.99
2023-03-05T06:26:08.111Z,99.99
2023-03-05T06:27:08.130Z,99.99
2023-03-05T06:28:08.094Z,99.99
2023-03-05T06:29:08.126Z,99.99
2023-03-05T06:30:08.074Z,99.99
2023-03-05T06:31:08.153Z,99.99
2023-03-05T06:32:08.072Z,99.99
2023-03-05T06:33:08.107Z,99.99
2023-03-05T06:34:08.026Z,99.99
2023-03-05T06:35:08.077Z,99.99
2023-03-05T06:36:08.006Z,99.99
2023-03-05T06:37:08.013Z,99.99
2023-03-05T06:38:08.006Z,99.99
2023-03-05T06:39:07.998Z,99.99
2023-03-05T06:40:07.982Z,99.99
2023-03-05T06:41:08.005Z,99.99
2023-03-05T06:42:07.950Z,99.99
2023-03-05T06:43:07.989Z,99.99
2023-03-05T06:44:07.936Z,99.99
2023-03-05T06:45:07.995Z,99.99
2023-03-05T06:46:08.006Z,99.99
2023-03-05T06:47:07.935Z,99.99
2023-03-05T06:48:07.883Z,99.99
2023-03-05T06:49:07.897Z,99.99
2023-03-05T06:50:07.864Z,99.99
2023-03-05T06:51:08.099Z,99.99
2023-03-05T06:52:07.848Z,99.99
2023-03-05T06:53:07.868Z,99.99
2023-03-05T06:54:07.826Z,99.99
2023-03-05T06:55:07.829Z,99.99
2023-03-05T06:56:07.798Z,99.99
2023-03-05T06:57:07.818Z,99.99
2023-03-05T06:58:07.784Z,99.99
2023-03-05T06:59:07.826Z,99.99
2023-03-05T07:00:07.754Z,99.99
2023-03-05T07:01:07.804Z,99.99
2023-03-05T07:02:07.850Z,99.99
2023-03-05T07:03:07.757Z,99.99
2023-03-05T07:04:07.713Z,99.99
2023-03-05T07:05:07.748Z,99.99
2023-03-05T07:06:07.695Z,99.99
2023-03-05T07:07:07.707Z,99.99
2023-03-05T07:08:07.675Z,99.99
2023-03-05T07:09:07.696Z,99.99
2023-03-05T07:10:07.655Z,99.99
2023-03-05T07:11:07.682Z,99.99
2023-03-05T07:12:07.635Z,99.99
2023-03-05T07:13:07.646Z,99.99
2023-03-05T07:14:07.618Z,99.99
2023-03-05T07:15:07.625Z,99.99
2023-03-05T07:16:07.625Z,99.99
2023-03-05T07:17:07.623Z,99.99
2023-03-05T07:18:07.574Z,99.99
2023-03-05T07:19:07.588Z,99.99
2023-03-05T07:20:07.549Z,99.99
2023-03-05T07:21:07.568Z,99.99
2023-03-05T07:22:07.542Z,99.99
2023-03-05T07:23:07.559Z,99.99
2023-03-05T07:24:07.507Z,99.99
2023-03-05T07:25:07.524Z,99.99
2023-03-05T07:26:07.530Z,99.99
2023-03-05T07:27:07.505Z,99.99
2023-03-05T07:28:07.513Z,99.99
2023-03-05T07:29:07.517Z,99.99
2023-03-05T07:30:07.446Z,99.99
2023-03-05T07:31:07.505Z,99.99
2023-03-05T07:32:07.489Z,99.99
2023-03-05T07:33:07.459Z,99.99
2023-03-05T07:34:07.418Z,99.99
2023-03-05T07:35:07.444Z,99.99
2023-03-05T07:36:07.385Z,99.99
2023-03-05T07:37:07.410Z,99.99
2023-03-05T07:38:07.363Z,99.99
2023-03-05T07:39:07.376Z,99.99
2023-03-05T07:40:07.346Z,99.99
2023-03-05T07:41:07.385Z,99.99
2023-03-05T07:42:07.349Z,99.99
2023-03-05T07:43:07.335Z,99.99
2023-03-05T07:44:07.305Z,99.99
2023-03-05T07:45:07.314Z,99.99
2023-03-05T07:46:07.351Z,99.99
2023-03-05T07:47:07.319Z,99.99
2023-03-05T07:48:07.262Z,99.99
2023-03-05T07:49:07.280Z,99.99
2023-03-05T07:50:07.245Z,99.99
2023-03-05T07:51:07.254Z,99.99
2023-03-05T07:52:07.225Z,99.99
2023-03-05T07:53:07.478Z,99.99
2023-03-05T07:54:07.199Z,99.99
2023-03-05T07:55:07.212Z,99.99
2023-03-05T07:56:07.185Z,99.99
2023-03-05T07:57:07.191Z,99.99
2023-03-05T07:58:07.161Z,99.99
2023-03-05T07:59:07.191Z,99.99
2023-03-05T08:00:07.147Z,99.99
2023-03-05T08:01:07.152Z,99.99
2023-03-05T08:02:07.189Z,99.99
2023-03-05T08:03:07.131Z,99.99
2023-03-05T08:04:07.139Z,99.99
2023-03-05T08:05:07.123Z,99.99
2023-03-05T08:06:07.077Z,99.99
2023-03-05T08:07:07.092Z,99.99
2023-03-05T08:08:07.055Z,99.99
2023-03-05T08:09:07.086Z,99.99
2023-03-05T08:10:07.064Z,99.99
2023-03-05T08:11:07.111Z,99.99
2023-03-05T08:12:07.016Z,99.99
2023-03-05T08:13:07.033Z,99.99
2023-03-05T08:14:07.020Z,99.99
2023-03-05T08:15:07.041Z,99.99
2023-03-05T08:16:07.013Z,99.99
2023-03-05T08:17:07.013Z,99.99
2023-03-05T08:18:07.000Z,99.99
2023-03-05T08:19:06.994Z,99.99
2023-03-05T08:20:06.937Z,99.99
2023-03-05T08:21:06.981Z,99.99
2023-03-05T08:22:06.912Z,99.99
2023-03-05T08:23:06.942Z,99.99
2023-03-05T08:24:06.906Z,99.99
2023-03-05T08:25:06.910Z,99.99
2023-03-05T08:26:06.878Z,99.99
2023-03-05T08:27:06.896Z,99.99
2023-03-05T08:28:06.846Z,99.99
2023-03-05T08:29:06.873Z,99.99
2023-03-05T08:30:06.844Z,99.99
2023-03-05T08:31:06.851Z,99.99
2023-03-05T08:32:06.817Z,99.99
2023-03-05T08:33:06.839Z,99.99
2023-03-05T08:34:06.851Z,99.99
2023-03-05T08:35:06.830Z,99.99
2023-03-05T08:36:06.777Z,99.99
2023-03-05T08:37:06.812Z,99.99
2023-03-05T08:38:06.746Z,99.99
2023-03-05T08:39:06.831Z,99.99
2023-03-05T08:40:06.725Z,99.99
2023-03-05T08:41:06.768Z,99.99
2023-03-05T08:42:08.889Z,99.99
2023-03-05T08:43:06.748Z,99.99
2023-03-05T08:44:06.710Z,99.99
2023-03-05T08:45:06.785Z,99.99
2023-03-05T08:46:06.668Z,99.99
2023-03-05T08:47:06.752Z,99.99
2023-03-05T08:48:06.664Z,99.99
2023-03-05T08:49:06.664Z,99.99
2023-03-05T08:50:06.623Z,99.99
2023-03-05T08:51:06.635Z,99.99
2023-03-05T08:52:06.635Z,99.99
2023-03-05T08:53:06.635Z,99.99
2023-03-05T08:54:06.585Z,99.99
2023-03-05T08:55:06.623Z,99.99
2023-03-05T08:56:06.570Z,99.99
2023-03-05T08:57:06.585Z,99.99
2023-03-05T08:58:06.581Z,99.99
2023-03-05T08:59:06.598Z,99.99
2023-03-05T09:00:06.542Z,99.99
2023-03-05T09:01:06.550Z,99.99
2023-03-05T09:02:06.539Z,99.99
2023-03-05T09:03:06.526Z,99.99
2023-03-05T09:04:06.475Z,99.99
2023-03-05T09:05:06.504Z,99.99
2023-03-05T09:06:06.457Z,99.99
2023-03-05T09:07:06.468Z,99.99
2023-03-05T09:08:06.434Z,99.99
2023-03-05T09:09:06.446Z,99.99
2023-03-05T09:10:06.428Z,99.99
2023-03-05T09:11:06.464Z,99.99
2023-03-05T09:12:06.391Z,99.99
2023-03-05T09:13:06.426Z,99.99
2023-03-05T09:14:06.400Z,99.99
2023-03-05T09:15:06.388Z,99.99
2023-03-05T09:16:06.461Z,99.99
2023-03-05T09:17:06.383Z,99.99
2023-03-05T09:18:06.363Z,99.99
2023-03-05T09:19:06.330Z,99.99
2023-03-05T09:20:06.346Z,99.99
2023-03-05T09:21:06.304Z,99.99
2023-03-05T09:22:06.318Z,99.99
2023-03-05T09:23:06.325Z,99.99
2023-03-05T09:24:06.308Z,99.99
2023-03-05T09:25:06.267Z,99.99
2023-03-05T09:26:06.292Z,99.99
2023-03-05T09:27:06.262Z,99.99
2023-03-05T09:28:06.252Z,99.99
2023-03-05T09:29:06.240Z,99.99
2023-03-05T09:30:06.233Z,99.99
2023-03-05T09:31:06.205Z,99.99
2023-03-05T09:32:06.301Z,99.99
2023-03-05T09:33:06.179Z,99.99
2023-03-05T09:34:06.190Z,99.99
2023-03-05T09:35:06.170Z,99.99
2023-03-05T09:36:06.194Z,99.99
2023-03-05T09:37:06.133Z,99.99
2023-03-05T09:38:06.160Z,99.99
2023-03-05T09:39:06.119Z,99.99
2023-03-05T09:40:06.130Z,99.99
2023-03-05T09:41:06.116Z,99.99
2023-03-05T09:42:06.117Z,99.99
2023-03-05T09:43:06.084Z,99.99
2023-03-05T09:44:06.085Z,99.99
2023-03-05T09:45:06.057Z,99.99
2023-03-05T09:46:06.193Z,99.99
2023-03-05T09:47:06.101Z,99.99
2023-03-05T09:48:06.045Z,99.99
2023-03-05T09:49:06.008Z,99.99
2023-03-05T09:50:06.022Z,99.99
2023-03-05T09:51:05.999Z,99.99
2023-03-05T09:52:06.011Z,99.99
2023-03-05T09:53:06.014Z,99.99
2023-03-05T09:54:05.990Z,99.99
2023-03-05T09:55:05.950Z,99.99
2023-03-05T09:56:05.960Z,99.99
2023-03-05T09:57:05.928Z,99.99
2023-03-05T09:58:05.965Z,99.99
2023-03-05T09:59:05.937Z,99.99
2023-03-05T10:00:05.929Z,99.86
2023-03-05T10:01:05.885Z,99.09
2023-03-05T10:02:05.904Z,99.66
2023-03-05T10:03:05.965Z,99.31
2023-03-05T10:04:05.932Z,97.13
2023-03-05T10:05:05.863Z,97.86
2023-03-05T10:06:05.866Z,97.55
2023-03-05T10:07:08.441Z,97.34
2023-03-05T10:08:05.841Z,97.96
2023-03-05T10:09:05.819Z,97.24
2023-03-05T10:10:05.833Z,97.13
2023-03-05T10:11:05.809Z,96.61
2023-03-05T10:12:05.799Z,96.20
2023-03-05T10:13:05.767Z,97.03
2023-03-05T10:14:05.774Z,97.24
2023-03-05T10:15:05.748Z,96.26
2023-03-05T10:16:05.756Z,95.89
2023-03-05T10:17:05.759Z,96.36
2023-03-05T10:18:05.741Z,96.26
2023-03-05T10:19:05.698Z,96.47
2023-03-05T10:20:05.735Z,95.12
2023-03-05T10:21:05.694Z,96.31
2023-03-05T10:22:05.693Z,94.93
2023-03-05T10:23:05.682Z,94.98
2023-03-05T10:24:05.670Z,90.44
2023-03-05T10:25:05.634Z,91.78
2023-03-05T10:26:05.651Z,91.78
2023-03-05T10:27:05.670Z,91.63
2023-03-05T10:28:05.628Z,91.78
2023-03-05T10:29:05.622Z,92.15
2023-03-05T10:30:05.603Z,91.57
2023-03-05T10:31:05.572Z,91.20
2023-03-05T10:32:05.740Z,91.51
2023-03-05T10:33:05.562Z,90.95
2023-03-05T10:34:05.628Z,92.09
2023-03-05T10:35:05.566Z,90.60
2023-03-05T10:36:05.542Z,89.11
2023-03-05T10:37:05.534Z,87.81
2023-03-05T10:38:05.523Z,90.45
2023-03-05T10:39:05.495Z,90.16
2023-03-05T10:40:05.502Z,86.90
2023-03-05T10:41:05.487Z,85.86
2023-03-05T10:42:05.480Z,88.76
2023-03-05T10:43:05.454Z,87.27
2023-03-05T10:44:05.461Z,85.60
2023-03-05T10:45:05.429Z,85.42
2023-03-05T10:46:05.473Z,87.60
2023-03-05T10:47:05.423Z,87.81
2023-03-05T10:48:05.430Z,88.74
2023-03-05T10:49:05.385Z,88.74
2023-03-05T10:50:05.399Z,86.98
2023-03-05T10:51:05.387Z,86.21
2023-03-05T10:52:05.388Z,86.52
2023-03-05T10:53:05.437Z,85.84
2023-03-05T10:54:05.352Z,85.74
2023-03-05T10:55:05.341Z,85.74
2023-03-05T10:56:05.336Z,87.87
2023-03-05T10:57:05.302Z,86.32
2023-03-05T10:58:05.314Z,85.70
2023-03-05T10:59:05.320Z,84.25
2023-03-05T11:00:05.290Z,87.91
2023-03-05T11:01:05.374Z,85.74
2023-03-05T11:02:05.336Z,85.74
2023-03-05T11:03:05.243Z,87.70
2023-03-05T11:04:05.250Z,86.29
2023-03-05T11:05:05.337Z,89.09
2023-03-05T11:06:05.233Z,89.44
2023-03-05T11:07:05.209Z,90.25
2023-03-05T11:08:05.207Z,90.91
2023-03-05T11:09:05.167Z,91.78
2023-03-05T11:10:05.197Z,95.93
2023-03-05T11:11:05.195Z,96.55
2023-03-05T11:12:05.162Z,95.51
2023-03-05T11:13:05.128Z,97.13
2023-03-05T11:14:05.135Z,96.92
2023-03-05T11:15:05.113Z,96.61
2023-03-05T11:16:05.209Z,97.19
2023-03-05T11:17:05.106Z,94.60
2023-03-05T11:18:05.095Z,94.81
2023-03-05T11:19:05.063Z,94.81
2023-03-05T11:20:05.134Z,94.18
2023-03-05T11:21:05.061Z,94.39
2023-03-05T11:22:05.051Z,92.63
2023-03-05T11:23:05.038Z,94.23
2023-03-05T11:24:05.036Z,94.95
2023-03-05T11:25:05.010Z,95.00
2023-03-05T11:26:05.009Z,93.13
2023-03-05T11:27:04.979Z,94.42
2023-03-05T11:28:04.991Z,95.67
2023-03-05T11:29:05.020Z,95.25
2023-03-05T11:30:04.981Z,93.12
2023-03-05T11:31:05.005Z,95.81
2023-03-05T11:32:05.017Z,95.40
2023-03-05T11:33:04.917Z,95.92
2023-03-05T11:34:04.936Z,97.37
2023-03-05T11:35:04.925Z,97.06
2023-03-05T11:36:04.906Z,95.98
2023-03-05T11:37:04.873Z,97.64
2023-03-05T11:38:04.902Z,97.53
2023-03-05T11:39:04.857Z,96.97
2023-03-05T11:40:04.868Z,96.55
2023-03-05T11:41:04.851Z,94.48
2023-03-05T11:42:04.844Z,94.68
2023-03-05T11:43:04.809Z,95.26
2023-03-05T11:44:04.822Z,93.33
2023-03-05T11:45:04.786Z,93.65
2023-03-05T11:46:04.906Z,93.65
2023-03-05T11:47:04.793Z,93.75
2023-03-05T11:48:04.791Z,94.37
2023-03-05T11:49:04.746Z,93.44
2023-03-05T11:50:04.757Z,93.33
2023-03-05T11:51:04.742Z,92.61
2023-03-05T11:52:04.766Z,93.23
2023-03-05T11:53:04.724Z,92.82
2023-03-05T11:54:04.722Z,93.65
2023-03-05T11:55:04.683Z,94.27
2023-03-05T11:56:04.724Z,93.23
2023-03-05T11:57:04.665Z,94.17
2023-03-05T11:58:04.680Z,94.17
2023-03-05T11:59:04.667Z,93.75
2023-03-05T12:00:04.700Z,95.06
2023-03-05T12:01:04.626Z,93.02
2023-03-05T12:02:04.647Z,90.37
2023-03-05T12:03:04.656Z,92.24
2023-03-05T12:04:04.645Z,93.22
2023-03-05T12:05:04.608Z,92.53
2023-03-05T12:06:04.634Z,95.38
2023-03-05T12:07:04.566Z,94.24
2023-03-05T12:08:04.574Z,96.04
2023-03-05T12:09:04.543Z,97.61
2023-03-05T12:10:04.554Z,97.71
2023-03-05T12:11:04.571Z,97.09
2023-03-05T12:12:04.532Z,95.42
2023-03-05T12:13:04.500Z,97.71
2023-03-05T12:14:04.512Z,98.91
2023-03-05T12:15:04.483Z,95.79
2023-03-05T12:16:04.515Z,96.00
2023-03-05T12:17:04.482Z,97.35
2023-03-05T12:18:04.471Z,98.66
2023-03-05T12:19:04.438Z,98.61
2023-03-05T12:20:04.492Z,96.69
2023-03-05T12:21:04.444Z,95.19
2023-03-05T12:22:04.431Z,94.71
2023-03-05T12:23:04.430Z,94.51
2023-03-05T12:24:04.418Z,96.64
2023-03-05T12:25:04.381Z,93.26
2023-03-05T12:26:04.389Z,96.48
2023-03-05T12:27:04.665Z,94.20
2023-03-05T12:28:04.381Z,95.44
2023-03-05T12:29:04.351Z,93.05
2023-03-05T12:30:04.345Z,93.16
2023-03-05T12:31:04.346Z,94.92
2023-03-05T12:32:04.330Z,96.95
2023-03-05T12:33:04.298Z,95.71
2023-03-05T12:34:04.321Z,92.01
2023-03-05T12:35:04.322Z,91.28
2023-03-05T12:36:04.337Z,90.50
2023-03-05T12:37:04.262Z,91.43
2023-03-05T12:38:17.174Z,91.43
2023-03-05T12:39:04.237Z,93.93
2023-03-05T12:40:04.245Z,94.24
2023-03-05T12:41:04.253Z,94.51
2023-03-05T12:42:04.224Z,92.74
2023-03-05T12:43:04.199Z,92.22
2023-03-05T12:44:04.208Z,91.49
2023-03-05T12:45:04.170Z,92.01
2023-03-05T12:46:04.180Z,93.57
2023-03-05T12:47:04.284Z,92.01
2023-03-05T12:48:04.162Z,91.28
2023-03-05T12:49:04.130Z,90.31
2023-03-05T12:50:04.141Z,88.54
2023-03-05T12:51:04.110Z,86.26
2023-03-05T12:52:04.123Z,88.23